Tiempo atmosférico en la estación meteorológica de Lalastra, Araba/Álava (910 m.)



Fecha
DESCASC
Temp. máxima en grados centígrados (hora)
DESCASC
Temp. mínima en grados centígrados (hora)
DESCASC
Temp. media en grados centígrados
DESCASC
Racha de viento máxima en m/sg (hora)
DESCASC
Velocidad máxima media en intervalos de 10 minutos(hora)
DESCASC
Precipitaciones diarias en mm
DESCASC
Precipitaciones de 00:00 a 06:00 en mm
DESCASC
Precipitaciones de 06:00 a 12:00 en mm
DESCASC
Precipitaciones de 12:00 a 18:00 en mm
DESCASC
Precipitaciones de 18:00 a 24:00 en mm
DESCASC
23-06-2019 29.4 (16:10) 12.6 (07:30) 21 10.28 (16:10) 3.89 (16:40) 0 0 0 0 0
22-06-2019 27.1 (17:00) 3.7 (07:10) 15.4 6.67 (15:30) 2.78 (14:50) 0 0 0 0 0
21-06-2019 14.6 (19:30) 9.1 (23:40) 11.9 7.78 (05:10) 3.61 (04:50) 2.4 2.4 0 0 0
20-06-2019 14.9 (17:00) 10.5 (00:00) 12.7 7.22 (23:50) 3.89 (23:50) 0.4 0 0 0 0.4
19-06-2019 23.5 (18:10) 12 (00:00) 17.8 9.72 (12:30) 3.89 (11:40) 0 0 0 0 0
18-06-2019 29 (18:20) 10.1 (00:00) 19.6 14.44 (17:50) 5.83 (13:50) 0 0 0 0 0
17-06-2019 28.6 (16:50) 7.6 (00:00) 18.1 9.72 (16:50) 3.89 (16:50) 0 0 0 0 0
16-06-2019 26.1 (17:40) 3.2 (00:00) 14.7 7.5 (16:40) 3.33 (15:10) 0 0 0 0 0
15-06-2019 18.2 (16:40) 5.8 (00:00) 12 8.61 (20:40) 3.89 (17:50) 0 0 0 0 0
14-06-2019 18.3 (13:40) 7.9 (00:00) 13.1 9.44 (15:50) 3.61 (15:30) 0 0 0 0 0
13-06-2019 22.6 (16:20) 4.6 (00:00) 13.6 8.89 (17:20) 4.72 (17:20) 0 0 0 0 0
12-06-2019 17.6 (16:40) 2.1 (00:00) 9.9 8.61 (19:10) 4.17 (03:30) 0 0 0 0 0
11-06-2019 11 (16:00) 5.3 (00:00) 8.2 9.17 (16:00) 4.72 (17:10) 3.6 1 0.4 2.2 0
10-06-2019 14.7 (16:10) 5.1 (00:00) 9.9 6.67 (00:30) 3.33 (00:40) 0.2 0 0 0 0.2
09-06-2019 18.6 (14:50) 8 (00:00) 13.3 10.56 (16:30) 5.83 (17:40) 0 0 0 0 0
08-06-2019 20.2 (16:20) 3.5 (00:00) 11.9 7.78 (18:00) 3.33 (17:20) 0 0 0 0 0
07-06-2019 16.4 (15:20) 6.4 (00:00) 11.4 16.94 (07:30) 8.06 (08:40) 0 0 0 0 0
06-06-2019 20.2 (18:50) 2.4 (00:00) 11.3 16.67 (20:50) 7.22 (21:10) 0 0 0 0 0
05-06-2019 12.8 (14:20) 6.3 (00:00) 9.6 8.89 (14:30) 4.44 (13:00) 4.6 0.6 3.8 0.2 0
04-06-2019 23.6 (17:10) 8.2 (00:00) 15.9 11.39 (13:00) 4.72 (13:10) 1.4 0 0 0 1.4
03-06-2019 28.1 (17:50) 9.5 (00:00) 18.8 9.17 (17:40) 3.89 (17:30) 0 0 0 0 0
02-06-2019 28.7 (16:20) 9.8 (00:00) 19.3 9.72 (15:40) 3.89 (16:20) 0 0 0 0 0
01-06-2019 29.5 (18:20) 8.9 (00:00) 19.2 6.67 (18:10) 2.78 (11:00) 0 0 0 0 0
31-05-2019 28.3 (17:30) 6.3 (00:00) 17.3 7.5 (18:50) 3.33 (12:40) 0 0 0 0 0
30-05-2019 24.8 (17:50) 3.5 (00:00) 14.1 6.39 (18:40) 3.06 (18:30) 0 0 0 0 0
29-05-2019 15.1 (18:00) 6.5 (00:00) 10.8 7.5 (10:40) 3.61 (10:50) 0.4 0 0 0.4 0
28-05-2019 12.9 (18:10) 6.3 (00:00) 9.6 8.33 (14:50) 4.44 (14:50) 0 0 0 0 0
27-05-2019 16.2 (17:10) 6.8 (00:00) 11.5 9.17 (18:10) 3.89 (19:10) 0.2 0 0 0.2 0
26-05-2019 15.5 (16:10) 7.4 (00:00) 11.5 7.5 (12:00) 3.33 (17:00) 0 0 0 0 0

Gráficas

Temp. máximas Temp. mínimas Temp. medias Precipitaciones Rachas de viento máximas Velocidades máximas media en intervalos de 10 minutos

Datos horarios

Fecha y hora oficial Temperatura (ºC) Velocidad del viento (km/h) Dirección del viento Racha (km/h) Dirección de racha Precipitación (mm) Presión (hPa) Tendencia (hPa) Humedad (%)
2019-06-24 23:00:00 15.2 3 Sudeste 14 Nordeste 0 -- -- 84
2019-06-24 22:00:00 16 4 Nordeste 20 Norte 0 -- -- 87
2019-06-24 21:00:00 17.4 7 Noroeste 24 Norte 0 -- -- 82
2019-06-24 20:00:00 20.3 9 Nordeste 24 Este 0 -- -- 73
2019-06-24 19:00:00 24.7 7 Nordeste 19 Nordeste 0 -- -- 56
2019-06-24 18:00:00 26.5 8 Sur 26 Sudoeste 0 -- -- 43
2019-06-24 17:00:00 27.1 4 Sur 17 Nordeste 0 -- -- 42
2019-06-24 16:00:00 26.3 9 Sudeste 26 Este 0 -- -- 42
2019-06-24 15:00:00 24.7 11 Este 22 Este 0 -- -- 46
2019-06-24 14:00:00 23.5 6 Sudeste 21 Sudeste 0 -- -- 49
2019-06-24 13:00:00 23.5 9 Este 17 Este 0 -- -- 53
2019-06-24 12:00:00 20.9 4 Este 13 Este 0 -- -- 60
2019-06-24 11:00:00 20.1 2 Oeste 6 Norte 0 -- -- 67
2019-06-24 10:00:00 17.7 0 Calma 9 Este 0 -- -- 76
2019-06-24 09:00:00 15.6 0 Calma 3 Este 0 -- -- 89
2019-06-24 08:00:00 14 0 Calma 5 Este 0 -- -- 91
2019-06-24 07:00:00 13.5 0 Calma 5 Este 0 -- -- 91
2019-06-24 06:00:00 13.6 0 Calma 6 Este 0 -- -- 89
2019-06-24 05:00:00 14.4 0 Calma 6 Norte 0 -- -- 86
2019-06-24 04:00:00 14.9 2 Este 6 Sudeste 0 -- -- 84
2019-06-24 03:00:00 15.1 0 Calma 5 Este 0 -- -- 83
2019-06-24 02:00:00 15.5 4 Nordeste 7 Nordeste 0 -- -- 80
2019-06-24 01:00:00 15.9 2 Norte 8 Este 0 -- -- 75
2019-06-24 00:00:00 16.7 4 Este 6 Este 0 -- -- 73
2019-06-23 23:00:00 18.1 2 Este 9 Nordeste 0 -- -- 68
2019-06-23 22:00:00 20 4 Este 10 Nordeste 0 -- -- 61
2019-06-23 21:00:00 22.2 0 Calma 13 Nordeste 0 -- -- 54
2019-06-23 20:00:00 23.6 6 Este 21 Noroeste 0 -- -- 53
2019-06-23 19:00:00 26.9 9 Noroeste 18 Noroeste 0 -- -- 42
2019-06-23 18:00:00 27.2 8 Sur 26 Sur 0 -- -- 31
2019-06-23 17:00:00 28.5 12 Sur 37 Sur 0 -- -- 26
2019-06-23 16:00:00 29.3 10 Sur 27 Sudoeste 0 -- -- 27
2019-06-23 15:00:00 27.7 12 Sur 31 Sudeste 0 -- -- 34
2019-06-23 14:00:00 25.6 9 Sur 22 Sudoeste 0 -- -- 41
2019-06-23 13:00:00 25.3 8 Sur 24 Sur 0 -- -- 39
2019-06-23 12:00:00 23.5 8 Sur 18 Sur 0 -- -- 44
2019-06-23 11:00:00 22.1 9 Sur 19 Sudoeste 0 -- -- 50
2019-06-23 10:00:00 19.8 9 Sudoeste 22 Sudoeste 0 -- -- 58
2019-06-23 09:00:00 15.9 9 Sudoeste 19 Sudoeste 0 -- -- 70
2019-06-23 08:00:00 12.9 0 Calma 7 Este 0 -- -- 83
2019-06-23 07:00:00 12.8 2 Este 8 Este 0 -- -- 80
2019-06-23 06:00:00 13 3 Este 6 Este 0 -- -- 80
2019-06-23 05:00:00 13.4 0 Calma 7 Este 0 -- -- 81
2019-06-23 04:00:00 13.2 2 Norte 5 Nordeste 0 -- -- 85
2019-06-23 03:00:00 13.7 0 Calma 5 Nordeste 0 -- -- 85
2019-06-23 02:00:00 14.3 0 Calma 5 Nordeste 0 -- -- 84
2019-06-23 01:00:00 14.5 0 Calma 4 Este 0 -- -- 83
2019-06-23 00:00:00 15.9 0 Calma 3 Sudeste 0 -- -- 78
2019-06-22 23:00:00 17.3 0 Calma 5 Nordeste 0 -- -- 74
2019-06-22 22:00:00 20 0 Calma 5 Noroeste 0 -- -- 65
2019-06-22 21:00:00 23.4 2 Nordeste 12 Sudoeste 0 -- -- 57
2019-06-22 20:00:00 25.9 6 Sudoeste 16 Sudoeste 0 -- -- 40
2019-06-22 19:00:00 26.2 3 Sur 19 Este 0 -- -- 38
2019-06-22 18:00:00 26.4 5 Nordeste 17 Este 0 -- -- 42
2019-06-22 17:00:00 27.1 5 Oeste 24 Este 0 -- -- 38
2019-06-22 16:00:00 26 5 Sur 24 Oeste 0 -- -- 37
2019-06-22 15:00:00 24.6 7 Sur 22 Sur 0 -- -- 45
2019-06-22 14:00:00 23.8 6 Sudoeste 17 Sudeste 0 -- -- 49
2019-06-22 13:00:00 22.5 5 Sudoeste 19 Sur 0 -- -- 45
2019-06-22 12:00:00 21.1 5 Sudoeste 12 Sudoeste 0 -- -- 45
2019-06-22 11:00:00 18.7 4 Sur 12 Sudoeste 0 -- -- 56
2019-06-22 10:00:00 15.1 3 Sudoeste 7 Sur 0 -- -- 71
2019-06-22 09:00:00 10.6 0 Calma 3 Sudeste 0 -- -- 100
2019-06-22 08:00:00 4.9 0 Calma 4 Nordeste 0 -- -- 100
2019-06-22 07:00:00 3.8 0 Calma 5 Nordeste 0 -- -- 98
2019-06-22 06:00:00 4 4 Este 5 Sudeste 0 -- -- 98
2019-06-22 05:00:00 4.4 0 Calma 7 Nordeste 0 -- -- 98
2019-06-22 04:00:00 4.8 4 Este 7 Este 0 -- -- 98
2019-06-22 03:00:00 5.5 2 Este 5 Nordeste 0 -- -- 96
2019-06-22 02:00:00 6.3 3 Este 4 Sudeste 0 -- -- 97
2019-06-22 01:00:00 7.4 0 Calma 4 Sudeste 0 -- -- 93
2019-06-22 00:00:00 9.1 0 Calma 8 Este 0 -- -- 95
2019-06-21 23:00:00 9.9 3 Sudoeste 14 Este 0 -- -- 92
2019-06-21 22:00:00 11.3 4 Este 12 Sudeste 0 -- -- 88
2019-06-21 21:00:00 12.9 4 Nordeste 15 Este 0 -- -- 81
2019-06-21 20:00:00 14.1 6 Este 16 Este 0 -- -- 78
2019-06-21 19:00:00 14.2 5 Este 16 Este 0 -- -- 80
2019-06-21 18:00:00 14.1 5 Este 12 Sudeste 0 -- -- 84
2019-06-21 17:00:00 13.2 5 Noroeste 16 Noroeste 0 -- -- 84
2019-06-21 16:00:00 14.2 4 Noroeste 12 Norte 0 -- -- 85
2019-06-21 15:00:00 12.5 5 Este 13 Noroeste 0 -- -- 86
2019-06-21 14:00:00 12 4 Noroeste 10 Noroeste 0 -- -- 91
2019-06-21 13:00:00 11.6 3 Norte 12 Sudeste 0 -- -- 93
2019-06-21 12:00:00 10.8 5 Sudeste 19 Este 0 -- -- 94
2019-06-21 11:00:00 10.4 4 Noroeste 12 Sur 0 -- -- 97
2019-06-21 10:00:00 9.6 4 Oeste 14 Noroeste 0 -- -- 99
2019-06-21 09:00:00 9.4 5 Noroeste 19 Noroeste 0 -- -- 99
2019-06-21 08:00:00 9.5 8 Noroeste 23 Noroeste 0 -- -- 99
2019-06-21 07:00:00 9.7 5 Noroeste 25 Noroeste 0 -- -- 99
2019-06-21 06:00:00 9.7 7 Norte 28 Este 0.2 -- -- 98
2019-06-21 05:00:00 10 11 Este 24 Este 1.8 -- -- 99
2019-06-21 04:00:00 10.2 8 Norte 18 Norte 0.4 -- -- 99
2019-06-21 03:00:00 10.3 6 Noroeste 19 Noroeste 0 -- -- 99
2019-06-21 02:00:00 10.4 9 Norte 25 Noroeste 0 -- -- 99
2019-06-21 01:00:00 10.5 12 Noroeste 23 Noroeste 0 -- -- 99
2019-06-21 00:00:00 10.5 12 Noroeste 26 Noroeste 0 -- -- 99
2019-06-20 23:00:00 10.7 7 Noroeste 19 Noroeste 0 -- -- 98
2019-06-20 22:00:00 11.1 4 Sudoeste 25 Noroeste 0 -- -- 97
2019-06-20 21:00:00 11.4 7 Noroeste 21 Noroeste 0.4 -- -- 97
2019-06-20 20:00:00 12 7 Oeste 24 Sur 0 -- -- 96
2019-06-20 19:00:00 12.5 4 Sudoeste 17 Noroeste 0 -- -- 94
2019-06-20 18:00:00 13.1 5 Oeste 24 Nordeste 0 -- -- 90
2019-06-20 17:00:00 14.9 5 Oeste 18 Noroeste 0 -- -- 82
2019-06-20 16:00:00 13.3 3 Norte 11 Norte 0 -- -- 89
2019-06-20 15:00:00 13 6 Noroeste 19 Norte 0 -- -- 90
2019-06-20 14:00:00 13.3 4 Noroeste 16 Norte 0 -- -- 90
2019-06-20 13:00:00 13.1 5 Nordeste 17 Este 0 -- -- 89
2019-06-20 12:00:00 12.8 5 Este 15 Este 0 -- -- 92
2019-06-20 11:00:00 12.6 2 Sudeste 12 Nordeste 0 -- -- 94
2019-06-20 10:00:00 12.3 3 Sur 10 Sur 0 -- -- 94
2019-06-20 09:00:00 11.7 2 Sudoeste 14 Este 0 -- -- 95
2019-06-20 08:00:00 11.6 4 Este 13 Este 0 -- -- 93
2019-06-20 07:00:00 11.4 5 Este 17 Este 0 -- -- 94
2019-06-20 06:00:00 11.4 4 Este 9 Este 0 -- -- 95
2019-06-20 05:00:00 11.6 0 Calma 6 Este 0 -- -- 93
2019-06-20 04:00:00 11.7 2 Sudeste 9 Nordeste 0 -- -- 93
2019-06-20 03:00:00 11.7 0 Calma 12 Nordeste 0 -- -- 93
2019-06-20 02:00:00 11.9 4 Noroeste 11 Oeste 0 -- -- 93
2019-06-20 01:00:00 12 2 Este 17 Norte 0 -- -- 94
2019-06-20 00:00:00 12 9 Nordeste 18 Este 0 -- -- 96
2019-06-19 23:00:00 12.3 5 Norte 23 Norte 0 -- -- 97
2019-06-19 22:00:00 12.4 12 Nordeste 23 Norte 0 -- -- 96
2019-06-19 21:00:00 14 7 Nordeste 22 Este 0 -- -- 91
2019-06-19 20:00:00 17 6 Este 25 Nordeste 0 -- -- 79
2019-06-19 19:00:00 19.5 9 Nordeste 33 Sur 0 -- -- 70
2019-06-19 18:00:00 23.3 9 Sur 23 Sudoeste 0 -- -- 45
2019-06-19 17:00:00 22.1 6 Sudeste 31 Sur 0 -- -- 51
2019-06-19 16:00:00 22.3 9 Sudoeste 28 Sur 0 -- -- 49
2019-06-19 15:00:00 21.4 13 Sudoeste -- -- -- -- -- 56
2019-06-19 14:00:00 20.4 11 Sur 32 Sudoeste 0 -- -- 54
2019-06-19 13:00:00 20.2 12 Sur 35 Sur 0 -- -- 58
2019-06-19 12:00:00 18 5 Oeste 30 Sudoeste 0 -- -- 65
2019-06-19 11:00:00 16.6 6 Sur 20 Sur 0 -- -- 72
2019-06-19 10:00:00 15.4 7 Sur 20 Sudeste 0 -- -- 77
2019-06-19 09:00:00 15.5 9 Sur 25 Sur 0 -- -- 77
2019-06-19 08:00:00 14.3 4 Sur 13 Sudoeste 0 -- -- 82
2019-06-19 07:00:00 13.4 5 Sur 14 Este 0 -- -- 84
2019-06-19 06:00:00 13.4 6 Sur 21 Oeste 0 -- -- 82
2019-06-19 05:00:00 13.1 4 Oeste 19 Sudoeste 0 -- -- 81
2019-06-19 04:00:00 13.5 3 Norte 10 Oeste 0 -- -- 77
2019-06-19 03:00:00 15.2 3 Noroeste 29 Oeste 0 -- -- 71
2019-06-19 02:00:00 16.4 10 Noroeste 23 Oeste 0 -- -- 65
2019-06-19 01:00:00 16.9 9 Oeste 23 Sudoeste 0 -- -- 61
2019-06-19 00:00:00 18.1 9 Oeste 23 Noroeste 0 -- -- 54
2019-06-18 23:00:00 19 8 Oeste 27 Oeste 0 -- -- 50
2019-06-18 22:00:00 20.7 10 Oeste 41 Oeste 0 -- -- 47
2019-06-18 21:00:00 23.5 13 Oeste 33 Noroeste 0 -- -- 38
2019-06-18 20:00:00 25.8 11 Oeste 39 Noroeste 0 -- -- 28
2019-06-18 19:00:00 27 21 Oeste 42 Noroeste 0 -- -- 24
2019-06-18 18:00:00 28.6 14 Sur 52 Sur 0 -- -- 18
2019-06-18 17:00:00 28.5 15 Sur 37 Sudoeste 0 -- -- 19
2019-06-18 16:00:00 27.8 10 Oeste 50 Sudoeste 0 -- -- 25
2019-06-18 15:00:00 26.6 14 Sudoeste 50 Sudoeste 0 -- -- 25
2019-06-18 14:00:00 26.2 14 Sur 50 Sudoeste 0 -- -- 27
2019-06-18 13:00:00 25.6 15 Sudoeste 36 Sudoeste 0 -- -- 30
2019-06-18 12:00:00 25 12 Sudoeste 33 Sudoeste 0 -- -- 35
2019-06-18 11:00:00 23.7 12 Sudoeste 30 Sudoeste 0 -- -- 36
2019-06-18 10:00:00 21.3 7 Sudeste 17 Sudeste 0 -- -- 44
2019-06-18 09:00:00 17 0 Calma 5 Nordeste 0 -- -- 79
2019-06-18 08:00:00 10.5 2 Noroeste 6 Sudoeste 0 -- -- 86
2019-06-18 07:00:00 10.5 3 Este 5 Este 0 -- -- 77
2019-06-18 06:00:00 10.6 0 Calma 5 Este 0 -- -- 76
2019-06-18 05:00:00 11.6 2 Sudeste 6 Este 0 -- -- 72
2019-06-18 04:00:00 14.4 3 Sudeste 9 Este 0 -- -- 68
2019-06-18 03:00:00 16.6 2 Sudeste 23 Sudoeste 0 -- -- 70
2019-06-18 02:00:00 15 5 Norte 12 Sur 0 -- -- 73
2019-06-18 01:00:00 15.3 4 Este 10 Sudeste 0 -- -- 81
2019-06-18 00:00:00 16.6 4 Sudoeste 19 Sur 0 -- -- 80
2019-06-17 23:00:00 18 2 Sudeste 5 Nordeste 0 -- -- 67
2019-06-17 22:00:00 19.6 2 Este 8 Oeste 0 -- -- 61
2019-06-17 21:00:00 22.2 2 Noroeste 15 Este 0 -- -- 54
2019-06-17 20:00:00 24.6 0 Calma 13 Noroeste 0 -- -- 37
2019-06-17 19:00:00 26.4 6 Noroeste 26 Sudoeste 0 -- -- 29
2019-06-17 18:00:00 28.2 5 Sudoeste 31 Sudoeste 0 -- -- 23
2019-06-17 17:00:00 28.4 13 Sur 35 Sur 0 -- -- 21
2019-06-17 16:00:00 28.3 12 Sudoeste 25 Sur 0 -- -- 23
2019-06-17 15:00:00 27.4 13 Sur 26 Sur 0 -- -- 29
2019-06-17 14:00:00 26.4 8 Sudeste 23 Sur 0 -- -- 31
2019-06-17 13:00:00 25.5 6 Sur 18 Sudoeste 0 -- -- 38
2019-06-17 12:00:00 24.2 9 Sudoeste 21 Sudoeste 0 -- -- 46
2019-06-17 11:00:00 22.4 7 Sur 19 Sudoeste 0 -- -- 49
2019-06-17 10:00:00 19.5 0 Calma 0 Calma 0 -- -- 67
2019-06-17 09:00:00 14.2 0 Calma -- -- 0 -- -- 91
2019-06-17 08:00:00 8.1 0 Calma -- -- 0 -- -- 98
2019-06-17 07:00:00 7.6 0 Calma -- -- 0 -- -- 97
2019-06-17 06:00:00 8 0 Calma -- -- 0 -- -- 96
2019-06-17 05:00:00 8.8 0 Calma 4 Este 0 -- -- 96
2019-06-17 04:00:00 9.2 0 Calma -- -- 0 -- -- 95
2019-06-17 03:00:00 9.9 0 Calma -- -- 0 -- -- 94
2019-06-17 02:00:00 10.8 0 Calma 4 Este 0 -- -- 93
2019-06-17 01:00:00 12.1 0 Calma 3 Oeste 0 -- -- 90
2019-06-17 00:00:00 13.7 0 Calma 8 Sudoeste 0 -- -- 87
2019-06-16 23:00:00 15.2 0 Calma 10 Nordeste 0 -- -- 83
2019-06-16 22:00:00 16.7 5 Norte 15 Noroeste 0 -- -- 80
2019-06-16 21:00:00 18.8 5 Norte 25 Este 0 -- -- 71
2019-06-16 20:00:00 21.5 9 Nordeste 23 Este 0 -- -- 60
2019-06-16 19:00:00 22.9 11 Nordeste 24 Nordeste 0 -- -- 50
2019-06-16 18:00:00 25.9 8 Sur 25 Sudeste 0 -- -- 35
2019-06-16 17:00:00 26 6 Sudoeste 27 Sudoeste 0 -- -- 33
2019-06-16 16:00:00 25.4 4 Oeste 25 Sudoeste 0 -- -- 33
2019-06-16 15:00:00 24.3 5 Sur 19 Sudoeste 0 -- -- 35
2019-06-16 14:00:00 23.2 5 Nordeste 17 Este 0 -- -- 44
2019-06-16 13:00:00 21.2 7 Este 15 Este 0 -- -- 49
2019-06-16 12:00:00 20.1 6 Este 18 Este 0 -- -- 54
2019-06-16 11:00:00 18 8 Este 16 Este 0 -- -- 54
2019-06-16 10:00:00 15.5 2 Sur 6 Sudeste 0 -- -- 68
2019-06-16 09:00:00 10.6 0 Calma 5 Nordeste 0 -- -- 84
2019-06-16 08:00:00 4.3 3 Nordeste 4 Nordeste 0 -- -- 99
2019-06-16 07:00:00 3.3 2 Nordeste 5 Nordeste 0 -- -- 98
2019-06-16 06:00:00 3.5 3 Nordeste 4 Nordeste 0 -- -- 97
2019-06-16 05:00:00 3.6 2 Nordeste 5 Nordeste 0 -- -- 96
2019-06-16 04:00:00 4 0 Calma 3 Sur 0 -- -- 95
2019-06-16 03:00:00 4.4 0 Calma 0 Calma 0 -- -- 95
2019-06-16 02:00:00 5 0 Calma 4 Norte 0 -- -- 93
2019-06-16 01:00:00 6.1 2 Sudoeste 4 Sur 0 -- -- 90
2019-06-16 00:00:00 7.6 0 Calma 14 Este 0 -- -- 87
2019-06-15 23:00:00 8.8 5 Este 20 Nordeste 0 -- -- 85
2019-06-15 22:00:00 9.7 9 Nordeste 24 Nordeste 0 -- -- 82
2019-06-15 21:00:00 11.7 13 Nordeste 31 Este 0 -- -- 76
2019-06-15 20:00:00 14.5 9 Nordeste 23 Norte 0 -- -- 66
2019-06-15 19:00:00 15.9 8 Nordeste 28 Este 0 -- -- 63
2019-06-15 18:00:00 17.5 11 Nordeste 28 Este 0 -- -- 59
2019-06-15 17:00:00 17.2 12 Nordeste 26 Este 0 -- -- 59
2019-06-15 16:00:00 17.6 9 Norte 17 Este 0 -- -- 60
2019-06-15 15:00:00 17.3 5 Nordeste 17 Este 0 -- -- 58
2019-06-15 14:00:00 16.4 6 Norte 17 Norte 0 -- -- 56
2019-06-15 13:00:00 15.2 3 Oeste 10 Noroeste 0 -- -- 64
2019-06-15 12:00:00 14.9 4 Oeste 13 Noroeste 0 -- -- 62
2019-06-15 11:00:00 14.7 5 Noroeste 11 Noroeste 0 -- -- 63
2019-06-15 10:00:00 12.9 3 Nordeste 8 Nordeste 0 -- -- 73
2019-06-15 09:00:00 10.1 0 Calma 6 Nordeste 0 -- -- 90
2019-06-15 08:00:00 6.7 2 Norte 4 Noroeste 0 -- -- 98
2019-06-15 07:00:00 5.8 0 Calma 4 Sudeste 0 -- -- 97
2019-06-15 06:00:00 6.2 0 Calma 4 Este 0 -- -- 98
2019-06-15 05:00:00 6.2 0 Calma 5 Nordeste 0 -- -- 98
2019-06-15 04:00:00 6 0 Calma 5 Este 0 -- -- 97
2019-06-15 03:00:00 6.1 2 Oeste 5 Noroeste 0 -- -- 96
2019-06-15 02:00:00 6.8 0 Calma 5 Norte 0 -- -- 94
2019-06-15 01:00:00 7.8 3 Noroeste 10 Noroeste 0 -- -- 94
2019-06-15 00:00:00 8.5 4 Nordeste 11 Nordeste 0 -- -- 93
2019-06-14 23:00:00 9.1 0 Calma 22 Noroeste 0 -- -- 95
2019-06-14 22:00:00 9.4 12 Norte 27 Noroeste 0 -- -- 94
2019-06-14 21:00:00 10.2 9 Norte 22 Noroeste 0 -- -- 89
2019-06-14 20:00:00 10.5 6 Norte 26 Norte 0 -- -- 89
2019-06-14 19:00:00 11.6 8 Norte 26 Nordeste 0 -- -- 85
2019-06-14 18:00:00 11.9 7 Nordeste 27 Nordeste 0 -- -- 83
2019-06-14 17:00:00 14.4 10 Nordeste 31 Nordeste 0 -- -- 77
2019-06-14 16:00:00 15.9 12 Nordeste 34 Este 0 -- -- 71
2019-06-14 15:00:00 16.9 11 Nordeste 26 Nordeste 0 -- -- 69
2019-06-14 14:00:00 18 10 Este 22 Nordeste 0 -- -- 65
2019-06-14 13:00:00 17.6 9 Nordeste 17 Nordeste 0 -- -- 65
2019-06-14 12:00:00 15.3 6 Este 13 Este 0 -- -- 69
2019-06-14 11:00:00 12.6 4 Sudeste 10 Este 0 -- -- 80
2019-06-14 10:00:00 10.2 3 Sudoeste 9 Noroeste 0 -- -- 87
2019-06-14 09:00:00 8.6 4 Nordeste 12 Este 0 -- -- 95
2019-06-14 08:00:00 8.3 4 Nordeste 9 Nordeste 0 -- -- 96
2019-06-14 07:00:00 7.9 3 Nordeste 8 Nordeste 0 -- -- 97
2019-06-14 06:00:00 8 3 Nordeste 6 Este 0 -- -- 97
2019-06-14 05:00:00 8 0 Calma 9 Sudeste 0 -- -- 96
2019-06-14 04:00:00 8 3 Este 6 Este 0 -- -- 95
2019-06-14 03:00:00 8.1 2 Sudeste 10 Este 0 -- -- 94
2019-06-14 02:00:00 8.2 2 Norte 6 Noroeste 0 -- -- 94
2019-06-14 01:00:00 8.1 3 Norte 9 Este 0 -- -- 95
2019-06-14 00:00:00 8.2 3 Noroeste 11 Sudoeste 0 -- -- 98
2019-06-13 23:00:00 8.3 3 Oeste 18 Sudeste 0 -- -- 97
2019-06-13 22:00:00 8.4 4 Oeste 15 Nordeste 0 -- -- 96
2019-06-13 21:00:00 8.8 6 Noroeste 21 Noroeste 0 -- -- 96
2019-06-13 20:00:00 9.4 13 Nordeste 28 Norte 0 -- -- 93
2019-06-13 19:00:00 11.8 13 Nordeste 29 Nordeste 0 -- -- 85
2019-06-13 18:00:00 15.6 9 Nordeste 32 Nordeste 0 -- -- 72
2019-06-13 17:00:00 19.4 14 Nordeste 30 Nordeste 0 -- -- 61
2019-06-13 16:00:00 22.4 7 Sur 22 Sur 0 -- -- 44
2019-06-13 15:00:00 21 6 Noroeste 23 Este 0 -- -- 46
2019-06-13 14:00:00 19.7 7 Este 19 Este 0 -- -- 53
2019-06-13 13:00:00 17.6 9 Este 18 Este 0 -- -- 57
2019-06-13 12:00:00 16.1 9 Este 18 Este 0 -- -- 61
2019-06-13 11:00:00 14.3 6 Este 19 Este 0 -- -- 64
2019-06-13 10:00:00 11.9 7 Este 17 Este 0 -- -- 72
2019-06-13 09:00:00 8.6 4 Este 8 Este 0 -- -- 87
2019-06-13 08:00:00 6.5 3 Este 10 Este 0 -- -- 95
2019-06-13 07:00:00 5.9 3 Nordeste 12 Este 0 -- -- 96
2019-06-13 06:00:00 5.2 4 Sudeste 11 Sudeste 0 -- -- 97
2019-06-13 05:00:00 4.7 0 Calma 8 Noroeste 0 -- -- 94
2019-06-13 04:00:00 5.5 2 Sur 11 Este 0 -- -- 92
2019-06-13 03:00:00 6.3 4 Sudeste 9 Sudeste 0 -- -- 93
2019-06-13 02:00:00 6.6 0 Calma 6 Noroeste 0 -- -- 92
2019-06-13 01:00:00 6.9 2 Sur 10 Este 0 -- -- 90
2019-06-13 00:00:00 7.7 4 Sudeste 16 Este 0 -- -- 90
2019-06-12 23:00:00 8.1 4 Nordeste 21 Nordeste 0 -- -- 90
2019-06-12 22:00:00 8.4 8 Nordeste 23 Nordeste 0 -- -- 89
2019-06-12 21:00:00 9.2 9 Nordeste 29 Nordeste 0 -- -- 86
2019-06-12 20:00:00 10.7 10 Nordeste 31 Nordeste 0 -- -- 79
2019-06-12 19:00:00 13.1 10 Este 29 Este 0 -- -- 69
2019-06-12 18:00:00 15.6 6 Norte 27 Nordeste 0 -- -- 57
2019-06-12 17:00:00 15.8 10 Nordeste 22 Nordeste 0 -- -- 54
2019-06-12 16:00:00 16.9 8 Sur 17 Sudoeste 0 -- -- 38
2019-06-12 15:00:00 15.7 5 Sudeste 15 Oeste 0 -- -- 47
2019-06-12 14:00:00 15.5 3 Sudeste 22 Sudoeste 0 -- -- 45
2019-06-12 13:00:00 14.3 8 Sudoeste 19 Sudoeste 0 -- -- 52
2019-06-12 12:00:00 13.3 8 Sur 21 Sudoeste 0 -- -- 55
2019-06-12 11:00:00 12.3 9 Sudoeste 17 Sudoeste 0 -- -- 56
2019-06-12 10:00:00 10.9 7 Sudoeste 15 Oeste 0 -- -- 68
2019-06-12 09:00:00 8.1 6 Sudoeste 12 Sudoeste 0 -- -- 78
2019-06-12 08:00:00 2.5 2 Nordeste 7 Nordeste 0 -- -- 94
2019-06-12 07:00:00 2.7 3 Sudeste 18 Noroeste 0 -- -- 89
2019-06-12 06:00:00 4.6 12 Oeste 26 Noroeste 0 -- -- 81
2019-06-12 05:00:00 4 12 Oeste 21 Oeste 0 -- -- 86
2019-06-12 04:00:00 4.4 12 Noroeste 23 Noroeste 0 -- -- 84
2019-06-12 03:00:00 4.4 11 Oeste 22 Noroeste 0 -- -- 86
2019-06-12 02:00:00 3.8 7 Noroeste 16 Oeste 0 -- -- 92
2019-06-12 01:00:00 4.3 5 Oeste 20 Oeste 0 -- -- 91
2019-06-12 00:00:00 5.4 6 Oeste 24 Noroeste 0 -- -- 88
2019-06-11 23:00:00 6 9 Noroeste 18 Oeste 0 -- -- 87
2019-06-11 22:00:00 6.8 9 Oeste 26 Oeste 0 -- -- 83
2019-06-11 21:00:00 8 12 Noroeste 30 Noroeste 0 -- -- 78
2019-06-11 20:00:00 9.1 9 Oeste 27 Norte 0 -- -- 79
2019-06-11 19:00:00 10.7 12 Noroeste 24 Norte 0 -- -- 77
2019-06-11 18:00:00 9.9 11 Noroeste 27 Noroeste 0.4 -- -- 82
2019-06-11 17:00:00 10.9 9 Noroeste 27 Noroeste 0 -- -- 81
2019-06-11 16:00:00 11 13 Noroeste 33 Norte 0 -- -- 82
2019-06-11 15:00:00 10.2 12 Noroeste 23 Oeste 0.4 -- -- 88
2019-06-11 14:00:00 8.3 15 Norte 30 Noroeste 0.6 -- -- 83
2019-06-11 13:00:00 9 9 Noroeste 23 Noroeste 0.8 -- -- 86
2019-06-11 12:00:00 8 9 Noroeste 26 Noroeste 0 -- -- 85
2019-06-11 11:00:00 7 12 Noroeste 21 Oeste 0 -- -- 91
2019-06-11 10:00:00 6 8 Noroeste 23 Noroeste 0 -- -- 92
2019-06-11 09:00:00 5.5 8 Noroeste 27 Noroeste 0.4 -- -- 95
2019-06-11 08:00:00 5.5 2 Norte 9 Nordeste 0 -- -- 97
2019-06-11 07:00:00 5.6 2 Sudoeste 6 Noroeste 0 -- -- 96
2019-06-11 06:00:00 5.9 2 Noroeste 5 Norte 0 -- -- 97
2019-06-11 05:00:00 6.1 0 Calma 5 Sur 0 -- -- 97
2019-06-11 04:00:00 6 0 Calma 4 Noroeste 0 -- -- 97
2019-06-11 03:00:00 6 0 Calma 4 Oeste 0 -- -- 97
2019-06-11 02:00:00 5.9 0 Calma 2 Este 0.4 -- -- 96
2019-06-11 01:00:00 6 0 Calma 3 Sur 0.6 -- -- 95
2019-06-11 00:00:00 6.2 0 Calma 8 Nordeste 0.2 -- -- 94
2019-06-10 23:00:00 6.4 3 Nordeste 20 Norte 0 -- -- 92
2019-06-10 22:00:00 6.8 6 Nordeste 20 Norte 0 -- -- 92
2019-06-10 21:00:00 7.6 9 Norte 21 Nordeste 0 -- -- 88
2019-06-10 20:00:00 8.5 9 Nordeste 23 Noroeste 0 -- -- 86
2019-06-10 19:00:00 10.3 8 Nordeste 22 Norte 0 -- -- 77
2019-06-10 18:00:00 12.1 8 Norte 21 Norte 0 -- -- 68
2019-06-10 17:00:00 13.7 10 Norte 19 Noroeste 0 -- -- 66
2019-06-10 16:00:00 14.5 8 Norte 22 Norte 0 -- -- 61
2019-06-10 15:00:00 13.2 8 Noroeste 17 Norte 0 -- -- 62
2019-06-10 14:00:00 11.7 5 Noroeste 16 Oeste 0 -- -- 66
2019-06-10 13:00:00 10.7 4 Noroeste 12 Noroeste 0 -- -- 69
2019-06-10 12:00:00 10 3 Sudeste 15 Noroeste 0 -- -- 71
2019-06-10 11:00:00 10.6 4 Noroeste 14 Noroeste 0 -- -- 70
2019-06-10 10:00:00 8.7 9 Norte 19 Norte 0 -- -- 78
2019-06-10 09:00:00 6.9 8 Norte 22 Norte 0 -- -- 85
2019-06-10 08:00:00 5.8 3 Oeste 6 Noroeste 0 -- -- 95
2019-06-10 07:00:00 5.1 2 Sudoeste 12 Oeste 0 -- -- 92
2019-06-10 06:00:00 6.4 4 Noroeste 12 Oeste 0 -- -- 92
2019-06-10 05:00:00 6.7 7 Norte 21 Noroeste 0 -- -- 94
2019-06-10 04:00:00 7 6 Noroeste 24 Noroeste 0 -- -- 95
2019-06-10 03:00:00 7.2 7 Noroeste 21 Norte 0 -- -- 95
2019-06-10 02:00:00 7.5 6 Noroeste 17 Noroeste 0 -- -- 96
2019-06-10 01:00:00 7.7 7 Norte 24 Noroeste 0 -- -- 95
2019-06-10 00:00:00 8.1 10 Norte 19 Noroeste 0 -- -- 94
2019-06-09 23:00:00 8.1 5 Norte 26 Norte 0 -- -- 95
2019-06-09 22:00:00 8 8 Norte 26 Norte 0 -- -- 95
2019-06-09 21:00:00 8.4 13 Norte 31 Norte 0 -- -- 95
2019-06-09 20:00:00 9 10 Norte 33 Norte 0 -- -- 95
2019-06-09 19:00:00 9.8 19 Norte 37 Norte 0 -- -- 91
2019-06-09 18:00:00 13.2 16 Norte 37 Norte 0 -- -- 77
2019-06-09 17:00:00 14.6 14 Norte 38 Norte 0 -- -- 73
2019-06-09 16:00:00 17 14 Norte 28 Nordeste 0 -- -- 66
2019-06-09 15:00:00 18.4 9 Norte 25 Norte 0 -- -- 59
2019-06-09 14:00:00 18.4 9 Norte 17 Norte 0 -- -- 64
2019-06-09 13:00:00 16.5 7 Noroeste 15 Nordeste 0 -- -- 68
2019-06-09 12:00:00 16.2 5 Nordeste 14 Norte 0 -- -- 69
2019-06-09 11:00:00 15.1 6 Nordeste 14 Nordeste 0 -- -- 70
2019-06-09 10:00:00 12.5 5 Norte 10 Norte 0 -- -- 79
2019-06-09 09:00:00 9.8 2 Este 6 Este 0 -- -- 88
2019-06-09 08:00:00 8.7 2 Sudeste 5 Este 0 -- -- 92
2019-06-09 07:00:00 8.2 0 Calma 8 Este 0 -- -- 96
2019-06-09 06:00:00 8.1 3 Nordeste 10 Nordeste 0 -- -- 96
2019-06-09 05:00:00 8.1 4 Este 14 Este 0 -- -- 95
2019-06-09 04:00:00 8.1 3 Nordeste 12 Norte 0 -- -- 95
2019-06-09 03:00:00 8.1 7 Norte 16 Norte 0 -- -- 95
2019-06-09 02:00:00 8.4 4 Norte 10 Nordeste 0 -- -- 94
2019-06-09 01:00:00 8.6 6 Noroeste 16 Nordeste 0 -- -- 94
2019-06-09 00:00:00 9.1 5 Sudeste 14 Nordeste 0 -- -- 93
2019-06-08 23:00:00 9.5 5 Este 18 Nordeste 0 -- -- 92
2019-06-08 22:00:00 10 5 Nordeste 20 Norte 0 -- -- 89
2019-06-08 21:00:00 11.3 6 Nordeste 23 Nordeste 0 -- -- 83
2019-06-08 20:00:00 14.4 8 Nordeste 28 Nordeste 0 -- -- 72
2019-06-08 19:00:00 15.9 9 Nordeste 26 Este 0 -- -- 66
2019-06-08 18:00:00 17.5 8 Nordeste 28 Este 0 -- -- 62
2019-06-08 17:00:00 18.9 6 Nordeste 19 Este 0 -- -- 56
2019-06-08 16:00:00 20.1 5 Sudeste 18 Nordeste 0 -- -- 50
2019-06-08 15:00:00 19.1 7 Este 18 Este 0 -- -- 48
2019-06-08 14:00:00 17.6 9 Este 21 Este 0 -- -- 54
2019-06-08 13:00:00 16.6 6 Este 16 Sudeste 0 -- -- 53
2019-06-08 12:00:00 15.3 5 Sudeste 14 Este 0 -- -- 56
2019-06-08 11:00:00 13.3 4 Este 13 Este 0 -- -- 64
2019-06-08 10:00:00 11.1 6 Este 15 Este 0 -- -- 70
2019-06-08 09:00:00 8.2 3 Este 15 Este 0 -- -- 77
2019-06-08 08:00:00 4.9 0 Calma 4 Sudeste 0 -- -- 96
2019-06-08 07:00:00 4.6 0 Calma 8 Sudeste 0 -- -- 94
2019-06-08 06:00:00 5 3 Este 12 Nordeste 0 -- -- 97
2019-06-08 05:00:00 4.3 2 Oeste 5 Norte 0 -- -- 96
2019-06-08 04:00:00 3.6 0 Calma 3 Este 0 -- -- 96
2019-06-08 03:00:00 3.6 0 Calma 3 Norte 0 -- -- 92
2019-06-08 02:00:00 4.7 0 Calma 4 Nordeste 0 -- -- 92
2019-06-08 01:00:00 4.8 0 Calma 5 Sur 0 -- -- 88
2019-06-08 00:00:00 6.4 2 Sudoeste 12 Este 0 -- -- 83
2019-06-07 23:00:00 7.4 3 Este 23 Nordeste 0 -- -- 82
2019-06-07 22:00:00 8.2 10 Nordeste 23 Nordeste 0 -- -- 79
2019-06-07 21:00:00 9.8 11 Nordeste 26 Nordeste 0 -- -- 72
2019-06-07 20:00:00 11.7 10 Nordeste 25 Este 0 -- -- 69
2019-06-07 19:00:00 12.1 12 Nordeste 24 Este 0 -- -- 66
2019-06-07 18:00:00 13.1 8 Este 24 Este 0 -- -- 62
2019-06-07 17:00:00 13.4 9 Nordeste 25 Nordeste 0 -- -- 61
2019-06-07 16:00:00 15.6 6 Oeste 25 Sudeste 0 -- -- 44
2019-06-07 15:00:00 15.6 10 Noroeste 30 Noroeste 0 -- -- 43
2019-06-07 14:00:00 15.7 12 Oeste 29 Oeste 0 -- -- 50
2019-06-07 13:00:00 14.2 8 Sudoeste 28 Sudoeste 0 -- -- 51
2019-06-07 12:00:00 12.5 17 Oeste 34 Sudoeste 0 -- -- 58
2019-06-07 11:00:00 10.9 8 Sudoeste 35 Sudoeste 0 -- -- 62
2019-06-07 10:00:00 11.2 16 Sudoeste 41 Sur 0 -- -- 63
2019-06-07 09:00:00 8.8 19 Sudoeste 54 Sur 0 -- -- 70
2019-06-07 08:00:00 7.4 21 Sur 61 Sudoeste 0 -- -- 77
2019-06-07 07:00:00 6.8 18 Sur 39 Sur 0 -- -- 81
2019-06-07 06:00:00 6.9 4 Nordeste 26 Sur 0 -- -- 81
2019-06-07 05:00:00 7.1 10 Sur 32 Sudoeste 0 -- -- 81
2019-06-07 04:00:00 7.1 15 Sur 40 Sudeste 0 -- -- 84
2019-06-07 03:00:00 6.9 15 Sur 35 Sur 0 -- -- 83
2019-06-07 02:00:00 7.1 13 Sur 54 Sur 0 -- -- 85
2019-06-07 01:00:00 8.5 21 Oeste 57 Sudeste 0 -- -- 83
2019-06-07 00:00:00 12.3 18 Sur 52 Sudeste 0 -- -- 76
2019-06-06 23:00:00 12.7 18 Sur 43 Oeste 0 -- -- 74
2019-06-06 22:00:00 15.2 24 Oeste 57 Sur 0 -- -- 62
2019-06-06 21:00:00 18.7 23 Sur 60 Sur 0 -- -- 34
2019-06-06 20:00:00 19.7 18 Sur 51 Sudoeste 0 -- -- 32
2019-06-06 19:00:00 20.1 24 Sudoeste 56 Sur 0 -- -- 32
2019-06-06 18:00:00 19.7 17 Sudoeste 41 Sudoeste 0 -- -- 33
2019-06-06 17:00:00 17.8 10 Sur 30 Sudoeste 0 -- -- 43
2019-06-06 16:00:00 19.1 10 Sur 29 Sudoeste 0 -- -- 50
2019-06-06 15:00:00 18 13 Sur 32 Sudoeste 0 -- -- 52
2019-06-06 14:00:00 16.6 13 Sudoeste 31 Sur 0 -- -- 59
2019-06-06 13:00:00 15.4 12 Sur 33 Sur 0 -- -- 56
2019-06-06 12:00:00 14.5 10 Sur 31 Sudoeste 0 -- -- 60
2019-06-06 11:00:00 12.1 9 Sur 24 Oeste 0 -- -- 72
2019-06-06 10:00:00 11.1 9 Sudoeste 20 Sur 0 -- -- 76
2019-06-06 09:00:00 7.9 0 Calma 3 Nordeste 0 -- -- 89
2019-06-06 08:00:00 2.9 0 Calma 4 Nordeste 0 -- -- 97
2019-06-06 07:00:00 2.7 3 Nordeste 6 Nordeste 0 -- -- 94
2019-06-06 06:00:00 3.7 0 Calma 4 Nordeste 0 -- -- 95
2019-06-06 05:00:00 4.3 3 Nordeste 4 Nordeste 0 -- -- 93
2019-06-06 04:00:00 5.4 0 Calma 3 Este 0 -- -- 94
2019-06-06 03:00:00 5.6 2 Sudeste 5 Nordeste 0 -- -- 93
2019-06-06 02:00:00 5.6 2 Norte 6 Oeste 0 -- -- 92
2019-06-06 01:00:00 6.4 2 Sudoeste 8 Nordeste 0 -- -- 88
2019-06-06 00:00:00 7 2 Sudoeste 11 Este 0 -- -- 87
2019-06-05 23:00:00 7.1 0 Calma 20 Nordeste 0 -- -- 81
2019-06-05 22:00:00 7.6 8 Nordeste 19 Nordeste 0 -- -- 76
2019-06-05 21:00:00 8.7 6 Nordeste 17 Nordeste 0 -- -- 80
2019-06-05 20:00:00 9.2 8 Norte 20 Norte 0 -- -- 82
2019-06-05 19:00:00 9.5 6 Nordeste 17 Noroeste 0 -- -- 77
2019-06-05 18:00:00 11.4 7 Norte 21 Noroeste 0 -- -- 71
2019-06-05 17:00:00 11.2 10 Norte 19 Norte 0 -- -- 78
2019-06-05 16:00:00 11 10 Noroeste 23 Noroeste 0.2 -- -- 85
2019-06-05 15:00:00 11.9 10 Noroeste 32 Norte 0 -- -- 71
2019-06-05 14:00:00 12.6 12 Noroeste 26 Noroeste 0 -- -- 74
2019-06-05 13:00:00 10.5 16 Noroeste 31 Noroeste 0 -- -- 82
2019-06-05 12:00:00 9.3 13 Noroeste 24 Noroeste 0 -- -- 88
2019-06-05 11:00:00 8.1 11 Noroeste 21 Oeste 0 -- -- 96
2019-06-05 10:00:00 7.3 6 Oeste 15 Noroeste 0 -- -- 96
2019-06-05 09:00:00 6.9 3 Noroeste 8 Oeste 2 -- -- 98
2019-06-05 08:00:00 6.4 0 Calma 16 Noroeste 0.8 -- -- 97
2019-06-05 07:00:00 6.4 9 Noroeste 20 Norte 1 -- -- 97
2019-06-05 06:00:00 7 8 Noroeste 17 Noroeste 0 -- -- 97
2019-06-05 05:00:00 7.2 7 Norte 19 Nordeste 0 -- -- 97
2019-06-05 04:00:00 7.2 10 Noroeste 20 Noroeste 0 -- -- 96
2019-06-05 03:00:00 7.4 4 Norte 17 Nordeste 0.2 -- -- 96
2019-06-05 02:00:00 7.5 8 Noroeste 25 Noroeste 0.2 -- -- 96
2019-06-05 01:00:00 7.9 2 Norte 19 Este 0.2 -- -- 94
2019-06-05 00:00:00 8.2 4 Norte 21 Este 1.2 -- -- 95
2019-06-04 23:00:00 8.5 9 Noroeste 22 Nordeste 0.2 -- -- 95
2019-06-04 22:00:00 8.8 6 Nordeste 21 Este 0 -- -- 93
2019-06-04 21:00:00 9.7 6 Nordeste 23 Este 0 -- -- 88
2019-06-04 20:00:00 10.7 12 Nordeste 30 Nordeste 0 -- -- 86
2019-06-04 19:00:00 13.3 13 Nordeste 32 Nordeste 0 -- -- 81
2019-06-04 18:00:00 18.5 14 Nordeste 35 Este 0 -- -- 69
2019-06-04 17:00:00 23 8 Sur 22 Sur 0 -- -- 44
2019-06-04 16:00:00 22.1 8 Sur 31 Sudeste 0 -- -- 45
2019-06-04 15:00:00 22.2 11 Sur 40 Sur 0 -- -- 50
2019-06-04 14:00:00 21.6 13 Sur 38 Sudoeste 0 -- -- 49
2019-06-04 13:00:00 20.3 16 Sur 41 Sur 0 -- -- 51
2019-06-04 12:00:00 19.3 11 Sur 36 Sur 0 -- -- 55
2019-06-04 11:00:00 17.6 14 Sur 40 Sudeste 0 -- -- 65
2019-06-04 10:00:00 15.4 10 Sudeste 30 Sudeste 0 -- -- 72
2019-06-04 09:00:00 14.7 10 Sur 25 Sudeste 0 -- -- 76
2019-06-04 08:00:00 13.9 10 Sudeste 30 Sudeste 0 -- -- 80
2019-06-04 07:00:00 14 11 Sur 25 Sudeste 0 -- -- 79
2019-06-04 06:00:00 13 7 Sudeste 22 Sudeste 0 -- -- 85
2019-06-04 05:00:00 9.4 2 Este 5 Este 0 -- -- 96
2019-06-04 04:00:00 9.5 0 Calma 4 Sudeste 0 -- -- 95
2019-06-04 03:00:00 9.9 0 Calma 6 Nordeste 0 -- -- 92
2019-06-04 02:00:00 10.6 0 Calma 4 Nordeste 0 -- -- 92
2019-06-04 01:00:00 11.6 2 Nordeste 6 Nordeste 0 -- -- 90
2019-06-04 00:00:00 12.7 0 Calma 6 Este 0 -- -- 88
2019-06-03 23:00:00 14.7 2 Sur 7 Sudeste 0 -- -- 82
2019-06-03 22:00:00 16.4 2 Este 12 Este 0 -- -- 78
2019-06-03 21:00:00 18.2 3 Nordeste 18 Nordeste 0 -- -- 73
2019-06-03 20:00:00 20.7 6 Este 23 Nordeste 0 -- -- 64
2019-06-03 19:00:00 24.1 13 Nordeste 30 Sudoeste 0 -- -- 52
2019-06-03 18:00:00 28 13 Sur 33 Sudoeste 0 -- -- 25
2019-06-03 17:00:00 27.9 10 Sur 32 Sudoeste 0 -- -- 24
2019-06-03 16:00:00 27.2 8 Sur 28 Sur 0 -- -- 26
2019-06-03 15:00:00 26.3 8 Oeste 19 Sur 0 -- -- 33
2019-06-03 14:00:00 25.2 6 Norte 17 Sur 0 -- -- 41
2019-06-03 13:00:00 23.3 8 Sur 18 Sur 0 -- -- 40
2019-06-03 12:00:00 21.9 8 Sur 17 Sudoeste 0 -- -- 46
2019-06-03 11:00:00 20.2 7 Sudeste 13 Sudeste 0 -- -- 51
2019-06-03 10:00:00 18.2 4 Este 8 Nordeste 0 -- -- 54
2019-06-03 09:00:00 14.3 0 Calma 6 Este 0 -- -- 75
2019-06-03 08:00:00 10.7 3 Nordeste 5 Este 0 -- -- 84
2019-06-03 07:00:00 9.9 2 Nordeste 5 Sudeste 0 -- -- 83
2019-06-03 06:00:00 9.9 2 Este 6 Nordeste 0 -- -- 81
2019-06-03 05:00:00 9.6 2 Este 6 Este 0 -- -- 83
2019-06-03 04:00:00 9.6 0 Calma 5 Sudeste 0 -- -- 80
2019-06-03 03:00:00 9.5 0 Calma -- -- 0 -- -- 80
2019-06-03 02:00:00 9.7 0 Calma 4 Este 0 -- -- 79
2019-06-03 01:00:00 10 0 Calma 6 Este 0 -- -- 75
2019-06-03 00:00:00 11.3 0 Calma 9 Este 0 -- -- 75
2019-06-02 23:00:00 13.2 0 Calma 6 Nordeste 0 -- -- 69
2019-06-02 22:00:00 15.6 2 Norte 7 Nordeste 0 -- -- 60
2019-06-02 21:00:00 17.9 4 Sudoeste 20 Este 0 -- -- 59
2019-06-02 20:00:00 20.5 10 Este 23 Nordeste 0 -- -- 54
2019-06-02 19:00:00 22.1 8 Este 26 Nordeste 0 -- -- 53
2019-06-02 18:00:00 24.9 11 Este 27 Nordeste 0 -- -- 47
2019-06-02 17:00:00 28.5 9 Oeste 30 Oeste 0 -- -- 27
2019-06-02 16:00:00 28 6 Norte 35 Oeste 0 -- -- 34
2019-06-02 15:00:00 28.4 7 Sur 19 Sur 0 -- -- 37
2019-06-02 14:00:00 27.6 9 Sudoeste 23 Sur 0 -- -- 39
2019-06-02 13:00:00 26.8 11 Sudoeste 21 Sudoeste 0 -- -- 41
2019-06-02 12:00:00 24.8 10 Sudoeste 21 Sudoeste 0 -- -- 41
2019-06-02 11:00:00 23.2 5 Sur 15 Sur 0 -- -- 45
2019-06-02 10:00:00 20.9 6 Sudoeste 15 Sudoeste 0 -- -- 50
2019-06-02 09:00:00 16.8 0 Calma 3 Norte 0 -- -- 74
2019-06-02 08:00:00 10.7 0 Calma 6 Nordeste 0 -- -- 85
2019-06-02 07:00:00 9.9 0 Calma 8 Nordeste 0 -- -- 83
2019-06-02 06:00:00 10.2 3 Nordeste 9 Nordeste 0 -- -- 81
2019-06-02 05:00:00 10.4 0 Calma 4 Sudeste 0 -- -- 82
2019-06-02 04:00:00 11.1 2 Este 7 Este 0 -- -- 80
2019-06-02 03:00:00 11.7 0 Calma 4 Sudeste 0 -- -- 78
2019-06-02 02:00:00 12.5 2 Este 6 Sudeste 0 -- -- 78
2019-06-02 01:00:00 14 3 Sudeste 6 Este 0 -- -- 73
2019-06-02 00:00:00 15.2 0 Calma 5 Sur 0 -- -- 69
2019-06-01 23:00:00 17.3 2 Sudeste 5 Sudeste 0 -- -- 63
2019-06-01 22:00:00 20.7 0 Calma 10 Sudeste 0 -- -- 53
2019-06-01 21:00:00 25.1 4 Sudeste 16 Este 0 -- -- 39
2019-06-01 20:00:00 26.8 7 Sudeste 20 Sudeste 0 -- -- 32
2019-06-01 19:00:00 27.9 7 Sudeste 24 Sudeste 0 -- -- 32
2019-06-01 18:00:00 29.4 9 Sudeste 23 Sudeste 0 -- -- 28
2019-06-01 17:00:00 29.2 5 Nordeste 17 Sudeste 0 -- -- 31
2019-06-01 16:00:00 28.7 7 Este 19 Este 0 -- -- 39
2019-06-01 15:00:00 28.2 6 Este 16 Este 0 -- -- 41
2019-06-01 14:00:00 27 7 Sudeste 17 Sur 0 -- -- 38
2019-06-01 13:00:00 25.8 6 Sur 17 Sudeste 0 -- -- 39
2019-06-01 12:00:00 24.3 8 Sur 16 Sudoeste 0 -- -- 42
2019-06-01 11:00:00 22.3 10 Sudeste 19 Sudeste 0 -- -- 50
2019-06-01 10:00:00 21 5 Sudoeste 11 Sudoeste 0 -- -- 54
2019-06-01 09:00:00 16.3 0 Calma 4 Noroeste 0 -- -- 79
2019-06-01 08:00:00 9.5 0 Calma 6 Nordeste 0 -- -- 92
2019-06-01 07:00:00 9 3 Nordeste 6 Nordeste 0 -- -- 88
2019-06-01 06:00:00 9.2 2 Este 6 Nordeste 0 -- -- 87
2019-06-01 05:00:00 10 4 Nordeste 7 Nordeste 0 -- -- 83
2019-06-01 04:00:00 10.2 3 Nordeste 8 Norte 0 -- -- 82
2019-06-01 03:00:00 10.9 4 Nordeste 7 Nordeste 0 -- -- 86
2019-06-01 02:00:00 11.5 3 Nordeste 5 Nordeste 0 -- -- 89
2019-06-01 01:00:00 12.5 3 Este 6 Nordeste 0 -- -- 86
2019-06-01 00:00:00 13.6 2 Nordeste 6 Nordeste 0 -- -- 83
2019-05-31 23:00:00 15.5 4 Nordeste 7 Nordeste 0 -- -- 76
2019-05-31 22:00:00 18.6 0 Calma 6 Este 0 -- -- 67
2019-05-31 21:00:00 22.8 3 Nordeste 15 Nordeste 0 -- -- 52
2019-05-31 20:00:00 24.4 7 Nordeste 23 Noroeste 0 -- -- 47
2019-05-31 19:00:00 26.1 5 Noroeste 27 Noroeste 0 -- -- 38
2019-05-31 18:00:00 27.8 4 Norte 21 Sudeste 0 -- -- 38
2019-05-31 17:00:00 28.2 4 Sur 14 Nordeste 0 -- -- 30
2019-05-31 16:00:00 27.2 3 Noroeste 17 Noroeste 0 -- -- 30
2019-05-31 15:00:00 26.4 7 Noroeste 14 Sudoeste 0 -- -- 39
2019-05-31 14:00:00 25.7 6 Oeste 15 Oeste 0 -- -- 41
2019-05-31 13:00:00 24.6 5 Sudoeste 20 Sur 0 -- -- 44
2019-05-31 12:00:00 23.8 4 Noroeste 12 Noroeste 0 -- -- 44
2019-05-31 11:00:00 22.6 3 Nordeste 9 Sudeste 0 -- -- 48
2019-05-31 10:00:00 19.8 3 Oeste 5 Oeste 0 -- -- 61
2019-05-31 09:00:00 14.7 0 Calma 5 Nordeste 0 -- -- 83
2019-05-31 08:00:00 7.7 2 Nordeste 6 Nordeste 0 -- -- 97
2019-05-31 07:00:00 6.4 2 Este 4 Este 0 -- -- 95
2019-05-31 06:00:00 6.5 2 Nordeste 5 Nordeste 0 -- -- 94
2019-05-31 05:00:00 6.7 2 Nordeste 4 Este 0 -- -- 93
2019-05-31 04:00:00 7.3 2 Nordeste 5 Nordeste 0 -- -- 92
2019-05-31 03:00:00 8.1 2 Norte 5 Nordeste 0 -- -- 90
2019-05-31 02:00:00 8.7 0 Calma 7 Nordeste 0 -- -- 88
2019-05-31 01:00:00 9.5 0 Calma 6 Nordeste 0 -- -- 87
2019-05-31 00:00:00 10.7 0 Calma 5 Nordeste 0 -- -- 84
2019-05-30 23:00:00 13 0 Calma 6 Sudoeste 0 -- -- 80
2019-05-30 22:00:00 16.4 2 Oeste 14 Nordeste 0 -- -- 70
2019-05-30 21:00:00 19.2 7 Nordeste 17 Nordeste 0 -- -- 62
2019-05-30 20:00:00 21.3 6 Norte 23 Norte 0 -- -- 54
2019-05-30 19:00:00 22.6 11 Norte 23 Noroeste 0 -- -- 45
2019-05-30 18:00:00 24.8 8 Noroeste 19 Norte 0 -- -- 39
2019-05-30 17:00:00 23.9 5 Sudeste 16 Nordeste 0 -- -- 37
2019-05-30 16:00:00 23.6 7 Norte 18 Nordeste 0 -- -- 38
2019-05-30 15:00:00 22.8 4 Este 13 Este 0 -- -- 39
2019-05-30 14:00:00 22 6 Sudeste 15 Nordeste 0 -- -- 43
2019-05-30 13:00:00 21 4 Nordeste 14 Norte 0 -- -- 55
2019-05-30 12:00:00 19.3 6 Noroeste 16 Nordeste 0 -- -- 61
2019-05-30 11:00:00 18.2 4 Nordeste 11 Sudeste 0 -- -- 60
2019-05-30 10:00:00 16 2 Norte 6 Norte 0 -- -- 70
2019-05-30 09:00:00 10.7 0 Calma 3 Este 0 -- -- 98
2019-05-30 08:00:00 4.4 0 Calma 4 Nordeste 0 -- -- 100
2019-05-30 07:00:00 3.5 0 Calma 4 Sudeste 0 -- -- 98
2019-05-30 06:00:00 3.7 0 Calma 5 Nordeste 0 -- -- 98
2019-05-30 05:00:00 3.9 0 Calma 6 Este 0 -- -- 98
2019-05-30 04:00:00 4 0 Calma 4 Este 0 -- -- 97
2019-05-30 03:00:00 4.4 0 Calma 3 Este 0 -- -- 96
2019-05-30 02:00:00 4.9 0 Calma 4 Nordeste 0 -- -- 95
2019-05-30 01:00:00 5.7 0 Calma 3 Sudeste 0 -- -- 95
2019-05-30 00:00:00 6.5 0 Calma 4 Este 0 -- -- 93
2019-05-29 23:00:00 8.2 2 Sudeste 6 Nordeste 0 -- -- 89
2019-05-29 22:00:00 10.8 5 Nordeste 13 Este 0 -- -- 86
2019-05-29 21:00:00 12.5 3 Nordeste 14 Norte 0 -- -- 80
2019-05-29 20:00:00 12.8 6 Este 16 Nordeste 0 -- -- 77
2019-05-29 19:00:00 13 6 Sudeste 19 Sur 0 -- -- 75
2019-05-29 18:00:00 15.1 5 Oeste 21 Norte 0 -- -- 73
2019-05-29 17:00:00 13 6 Este 17 Este 0 -- -- 79
2019-05-29 16:00:00 11.7 6 Nordeste 14 Norte 0 -- -- 86
2019-05-29 15:00:00 10.7 9 Norte 23 Norte 0 -- -- 89
2019-05-29 14:00:00 10.7 8 Norte 21 Norte 0 -- -- 90
2019-05-29 13:00:00 9.6 4 Norte 19 Noroeste 0.4 -- -- 93
2019-05-29 12:00:00 9 5 Norte 21 Norte 0 -- -- 94
2019-05-29 11:00:00 8.9 11 Norte 27 Norte 0 -- -- 91
2019-05-29 10:00:00 8.9 8 Norte 21 Norte 0 -- -- 91
2019-05-29 09:00:00 8 9 Norte 18 Noroeste 0 -- -- 90
2019-05-29 08:00:00 7.3 5 Norte 11 Norte 0 -- -- 89
2019-05-29 07:00:00 7.1 6 Norte 16 Norte 0 -- -- 88
2019-05-29 06:00:00 7 3 Noroeste 13 Noroeste 0 -- -- 88
2019-05-29 05:00:00 6.9 3 Noroeste 8 Oeste 0 -- -- 87
2019-05-29 04:00:00 7.1 3 Norte 12 Norte 0 -- -- 88
2019-05-29 03:00:00 7.3 4 Norte 11 Noroeste 0 -- -- 86
2019-05-29 02:00:00 7.2 4 Noroeste 11 Noroeste 0 -- -- 86
2019-05-29 01:00:00 7 4 Oeste 15 Noroeste 0 -- -- 85
2019-05-29 00:00:00 7.1 7 Noroeste 23 Norte 0 -- -- 83
2019-05-28 23:00:00 7.2 9 Norte 21 Norte 0 -- -- 82
2019-05-28 22:00:00 7.4 8 Norte 25 Norte 0 -- -- 80
2019-05-28 21:00:00 8.4 10 Norte 22 Noroeste 0 -- -- 75
2019-05-28 20:00:00 10.2 8 Norte 25 Norte 0 -- -- 70
2019-05-28 19:00:00 12.1 9 Norte 27 Norte 0 -- -- 63
2019-05-28 18:00:00 12.1 10 Norte 26 Norte 0 -- -- 65
2019-05-28 17:00:00 10.2 9 Norte 26 Noroeste 0 -- -- 78
2019-05-28 16:00:00 11.3 12 Norte 28 Norte 0 -- -- 73
2019-05-28 15:00:00 11.7 15 Noroeste 30 Noroeste 0 -- -- 71
2019-05-28 14:00:00 11.1 6 Norte 20 Norte 0 -- -- 78
2019-05-28 13:00:00 10.2 13 Norte 29 Noroeste 0 -- -- 73
2019-05-28 12:00:00 8.6 12 Noroeste 26 Noroeste 0 -- -- 86
2019-05-28 11:00:00 9.7 9 Noroeste 21 Norte 0 -- -- 79
2019-05-28 10:00:00 8.3 8 Noroeste 21 Noroeste 0 -- -- 82
2019-05-28 09:00:00 7.8 9 Noroeste 17 Noroeste 0 -- -- 80
2019-05-28 08:00:00 7.1 6 Norte 18 Norte 0 -- -- 84
2019-05-28 07:00:00 6.6 5 Norte 14 Noroeste 0 -- -- 85
2019-05-28 06:00:00 6.3 4 Norte 14 Noroeste 0 -- -- 84
2019-05-28 05:00:00 6.6 4 Norte 14 Nordeste 0 -- -- 87
2019-05-28 04:00:00 6.9 6 Norte 17 Norte 0 -- -- 86
2019-05-28 03:00:00 6.5 6 Norte 16 Norte 0 -- -- 87
2019-05-28 02:00:00 6.7 6 Norte 14 Norte 0 -- -- 88
2019-05-28 01:00:00 7 4 Norte 15 Norte 0 -- -- 88
2019-05-28 00:00:00 7.9 6 Nordeste 18 Norte 0 -- -- 87
2019-05-27 23:00:00 8.6 6 Norte 22 Norte 0 -- -- 86
2019-05-27 22:00:00 9.3 8 Norte 28 Nordeste 0 -- -- 88
2019-05-27 21:00:00 10.2 11 Norte 33 Nordeste 0 -- -- 83
2019-05-27 20:00:00 12.2 10 Norte 25 Norte 0 -- -- 82
2019-05-27 19:00:00 13.8 12 Norte 33 Norte 0 -- -- 78
2019-05-27 18:00:00 14.7 9 Nordeste 26 Norte 0 -- -- 76
2019-05-27 17:00:00 15.9 13 Norte 26 Norte 0 -- -- 75
2019-05-27 16:00:00 15.2 9 Norte 24 Noroeste 0 -- -- 83
2019-05-27 15:00:00 14.9 6 Norte 18 Norte 0.2 -- -- 84
2019-05-27 14:00:00 15 10 Norte 21 Noroeste 0 -- -- 79
2019-05-27 13:00:00 13.6 5 Noroeste 13 Noroeste 0 -- -- 85
2019-05-27 12:00:00 13.7 9 Noroeste 20 Noroeste 0 -- -- 78
2019-05-27 11:00:00 13.1 8 Noroeste 15 Oeste 0 -- -- 83
2019-05-27 10:00:00 10.7 8 Oeste 14 Oeste 0 -- -- 91
2019-05-27 09:00:00 8.5 0 Calma -- -- 0 -- -- 97
2019-05-27 08:00:00 7.1 0 Calma -- -- 0 -- -- 97
2019-05-27 07:00:00 6.8 0 Calma 3 Sudoeste 0 -- -- 97
2019-05-27 06:00:00 7 2 Sudoeste 6 Sudoeste 0 -- -- 96
2019-05-27 05:00:00 7.3 3 Nordeste 6 Nordeste 0 -- -- 97
2019-05-27 04:00:00 7.3 2 Nordeste 6 Nordeste 0 -- -- 94
2019-05-27 03:00:00 8.1 2 Noroeste 5 Norte 0 -- -- 96
2019-05-27 02:00:00 7.8 0 Calma 5 Norte 0 -- -- 96
2019-05-27 01:00:00 7.6 0 Calma 5 Noroeste 0 -- -- 95
2019-05-27 00:00:00 8.3 3 Noroeste 7 Norte 0 -- -- 90
2019-05-26 23:00:00 9.4 0 Calma 8 Nordeste 0 -- -- 91
2019-05-26 22:00:00 10 3 Nordeste 13 Este 0 -- -- 90
2019-05-26 21:00:00 10.7 6 Este 17 Este 0 -- -- 88
2019-05-26 20:00:00 11.7 10 Este 20 Nordeste 0 -- -- 84
2019-05-26 19:00:00 12.8 9 Nordeste 22 Nordeste 0 -- -- 80
2019-05-26 18:00:00 13.8 9 Nordeste 24 Este 0 -- -- 76
2019-05-26 17:00:00 14.5 12 Nordeste 22 Nordeste 0 -- -- 74
2019-05-26 16:00:00 15.2 6 Norte 23 Nordeste 0 -- -- 75
2019-05-26 15:00:00 13.9 9 Nordeste 20 Norte 0 -- -- 75
2019-05-26 14:00:00 12.4 10 Norte 22 Norte 0 -- -- 80
2019-05-26 13:00:00 11.8 9 Norte 22 Noroeste 0 -- -- 83
2019-05-26 12:00:00 11.1 8 Norte 27 Norte 0 -- -- 86
2019-05-26 11:00:00 10.6 6 Norte 17 Norte 0 -- -- 91
2019-05-26 10:00:00 9.7 2 Noroeste 11 Norte 0 -- -- 95
2019-05-26 09:00:00 9 5 Norte 12 Nordeste 0 -- -- 98
2019-05-26 08:00:00 8 4 Noroeste 12 Nordeste 0 -- -- 98
2019-05-26 07:00:00 7.5 6 Norte 15 Nordeste 0 -- -- 98
2019-05-26 06:00:00 7.4 6 Nordeste 13 Nordeste 0 -- -- 97
2019-05-26 05:00:00 7.5 4 Norte 10 Nordeste 0 -- -- 97
2019-05-26 04:00:00 7.5 0 Calma 12 Noroeste 0 -- -- 97
2019-05-26 03:00:00 7.5 7 Norte 16 Noroeste 0 -- -- 96
2019-05-26 02:00:00 7.6 5 Norte 15 Noroeste 0 -- -- 94
2019-05-26 01:00:00 7.6 5 Norte 19 Norte 0 -- -- 92
2019-05-26 00:00:00 7.7 12 Norte 22 Nordeste 0 -- -- 90